Helena, Montana
Current Conditions -  °F | °C
As of 5:53 AM on Monday 22 Dec 2014 (Local Time) from KHLN Reporting Station
Clear Clear  
Wind Chill: 25°   Ceiling: Unl
Heat Index: 37°   Visibility: 10mi
Dew Point: 23°   Wind: 29mph
Humidity: 57%   Direction: 260°W
Pressure: 29.8"   Gusts: 38mph
Location:  46.59°N, 112.02°W
Report Text: KHLN 221253Z 26025G33KT 10SM CLR 03/M05 A2980 RMK AO2 PK WND 27033/1251 SLP120 T00281050
Loading
Personal Weather Stations






























Interactive Weather Map New forecast layout! Learn more

10-Day Weather Forecast

Advertisements
Track Severe Weather on mobile